createdAt,value
2022-10-16T00:01:31.373Z,18.00
2022-10-16T00:03:32.900Z,17.70
2022-10-16T00:05:39.678Z,18.60
2022-10-16T00:07:41.189Z,19.05
2022-10-16T00:09:42.683Z,18.45
2022-10-16T00:11:44.295Z,19.00
2022-10-16T00:13:47.608Z,19.52
2022-10-16T00:15:49.114Z,19.05
2022-10-16T00:17:50.558Z,19.70
2022-10-16T00:19:52.030Z,20.77
2022-10-16T00:21:53.511Z,19.80
2022-10-16T00:24:01.562Z,21.42
2022-10-16T00:26:05.868Z,19.48
2022-10-16T00:28:07.382Z,19.98
2022-10-16T00:30:09.517Z,18.83
2022-10-16T00:32:10.971Z,18.63
2022-10-16T00:34:12.539Z,18.65
2022-10-16T00:36:16.603Z,17.98
2022-10-16T00:38:18.320Z,18.88
2022-10-16T00:40:19.771Z,18.48
2022-10-16T00:42:21.325Z,17.70
2022-10-16T00:44:53.424Z,17.67
2022-10-16T00:46:55.011Z,18.85
2022-10-16T00:49:07.211Z,19.45
2022-10-16T00:51:09.247Z,18.42
2022-10-16T00:53:12.301Z,18.88
2022-10-16T00:55:14.124Z,18.30
2022-10-16T00:57:15.872Z,17.77
2022-10-16T00:59:23.894Z,19.02
2022-10-16T01:01:25.446Z,18.90
2022-10-16T01:03:36.069Z,19.02
2022-10-16T01:05:52.102Z,19.95
2022-10-16T01:08:11.057Z,20.45
2022-10-16T01:10:24.711Z,20.30
2022-10-16T01:12:39.136Z,20.35
2022-10-16T01:14:48.671Z,20.67
2022-10-16T01:16:57.267Z,20.15
2022-10-16T01:19:12.395Z,19.92
2022-10-16T01:21:39.100Z,20.20
2022-10-16T01:24:04.263Z,21.13
2022-10-16T01:26:24.468Z,22.40
2022-10-16T01:28:37.066Z,22.83
2022-10-16T01:30:39.944Z,22.38
2022-10-16T01:32:46.188Z,23.00
2022-10-16T01:35:12.443Z,24.48
2022-10-16T01:37:19.323Z,24.33
2022-10-16T01:39:23.961Z,23.70
2022-10-16T01:41:31.452Z,24.58
2022-10-16T01:43:37.453Z,23.33
2022-10-16T01:45:39.358Z,23.48
2022-10-16T01:47:42.723Z,23.98
2022-10-16T01:49:45.955Z,23.48
2022-10-16T01:51:52.064Z,24.80
2022-10-16T01:53:58.602Z,25.27
2022-10-16T01:56:03.273Z,25.90
2022-10-16T01:58:08.835Z,26.13
2022-10-16T02:00:13.877Z,26.17
2022-10-16T02:02:18.298Z,26.10
2022-10-16T02:04:30.323Z,26.25
2022-10-16T02:06:32.926Z,25.38
2022-10-16T02:08:34.849Z,25.65
2022-10-16T02:10:38.216Z,26.17
2022-10-16T02:12:43.442Z,25.70
2022-10-16T02:14:45.114Z,26.40
2022-10-16T02:16:47.951Z,26.08
2022-10-16T02:18:49.681Z,26.83
2022-10-16T02:21:05.521Z,27.40
2022-10-16T02:23:13.080Z,27.75
2022-10-16T02:25:25.141Z,28.95
2022-10-16T02:27:41.740Z,29.42
2022-10-16T02:29:51.364Z,27.80
2022-10-16T02:31:57.663Z,31.48
2022-10-16T02:34:00.649Z,36.13
2022-10-16T02:36:02.245Z,42.40
2022-10-16T02:38:05.465Z,32.90
2022-10-16T02:40:08.295Z,28.98
2022-10-16T02:42:14.167Z,27.08
2022-10-16T02:44:15.745Z,27.55
2022-10-16T02:46:18.671Z,28.45
2022-10-16T02:48:20.149Z,27.45
2022-10-16T02:50:22.184Z,27.80
2022-10-16T02:52:23.980Z,26.75
2022-10-16T02:54:25.711Z,29.10
2022-10-16T02:56:27.277Z,31.80
2022-10-16T02:58:28.741Z,31.75
2022-10-16T03:00:30.299Z,33.58
2022-10-16T03:02:31.745Z,29.25
2022-10-16T03:04:33.292Z,27.35
2022-10-16T03:06:35.568Z,26.77
2022-10-16T03:08:37.080Z,25.90
2022-10-16T03:10:38.576Z,27.20
2022-10-16T03:12:40.102Z,26.42
2022-10-16T03:14:41.608Z,27.17
2022-10-16T03:16:43.138Z,26.02
2022-10-16T03:18:44.630Z,25.27
2022-10-16T03:20:46.220Z,24.65
2022-10-16T03:22:47.686Z,26.02
2022-10-16T03:24:49.157Z,24.60
2022-10-16T03:26:50.630Z,24.65
2022-10-16T03:28:52.227Z,24.65
2022-10-16T03:30:53.801Z,25.15
2022-10-16T03:32:55.363Z,27.92
2022-10-16T03:34:58.008Z,26.42
2022-10-16T03:36:59.506Z,27.48
2022-10-16T03:39:01.054Z,27.00
2022-10-16T03:41:02.616Z,27.50
2022-10-16T03:43:04.125Z,26.30
2022-10-16T03:45:06.337Z,26.20
2022-10-16T03:47:07.798Z,25.17
2022-10-16T03:49:09.967Z,25.65
2022-10-16T03:51:11.608Z,25.98
2022-10-16T03:53:13.086Z,24.25
2022-10-16T03:55:14.613Z,23.80
2022-10-16T03:57:16.145Z,25.08
2022-10-16T03:59:17.668Z,22.98
2022-10-16T04:01:19.201Z,25.38
2022-10-16T04:03:20.829Z,23.75
2022-10-16T04:05:22.311Z,24.38
2022-10-16T04:07:24.161Z,24.67
2022-10-16T04:09:25.811Z,23.70
2022-10-16T04:11:27.442Z,25.17
2022-10-16T04:13:28.983Z,24.27
2022-10-16T04:15:30.618Z,25.60
2022-10-16T04:17:32.113Z,25.08
2022-10-16T04:19:33.575Z,26.20
2022-10-16T04:21:35.166Z,25.98
2022-10-16T04:23:36.680Z,27.10
2022-10-16T04:25:38.350Z,27.75
2022-10-16T04:27:42.283Z,29.17
2022-10-16T04:29:46.741Z,28.42
2022-10-16T04:31:48.227Z,30.65
2022-10-16T04:33:49.733Z,29.98
2022-10-16T04:35:58.142Z,30.00
2022-10-16T04:37:59.628Z,30.00
2022-10-16T04:40:01.125Z,31.30
2022-10-16T04:42:02.613Z,30.30
2022-10-16T04:44:04.199Z,30.33
2022-10-16T04:46:06.297Z,31.88
2022-10-16T04:48:07.941Z,35.60
2022-10-16T04:50:09.696Z,32.83
2022-10-16T04:52:11.180Z,33.33
2022-10-16T04:54:12.674Z,31.55
2022-10-16T04:56:14.278Z,32.60
2022-10-16T04:58:16.095Z,31.20
2022-10-16T05:00:17.969Z,30.70
2022-10-16T05:02:19.439Z,29.50
2022-10-16T05:04:20.937Z,30.83
2022-10-16T05:06:22.408Z,32.45
2022-10-16T05:08:23.995Z,34.35
2022-10-16T05:10:25.608Z,35.58
2022-10-16T05:12:27.064Z,39.38
2022-10-16T05:14:28.566Z,34.55
2022-10-16T05:16:31.368Z,33.15
2022-10-16T05:18:32.891Z,28.65
2022-10-16T05:20:34.386Z,30.40
2022-10-16T05:22:35.913Z,34.05
2022-10-16T05:24:37.519Z,31.88
2022-10-16T05:26:39.006Z,31.83
2022-10-16T05:28:40.503Z,39.72
2022-10-16T05:30:41.988Z,39.40
2022-10-16T05:32:47.556Z,41.80
2022-10-16T05:34:49.024Z,34.88
2022-10-16T05:36:51.130Z,30.55
2022-10-16T05:38:52.858Z,29.17
2022-10-16T05:40:54.435Z,25.23
2022-10-16T05:42:56.871Z,22.08
2022-10-16T05:44:58.327Z,19.77
2022-10-16T05:46:59.865Z,17.17
2022-10-16T05:49:01.410Z,17.60
2022-10-16T05:51:10.756Z,16.88
2022-10-16T05:53:12.226Z,17.35
2022-10-16T05:55:13.847Z,17.92
2022-10-16T05:57:15.348Z,19.73
2022-10-16T05:59:16.885Z,16.85
2022-10-16T06:01:20.281Z,19.23
2022-10-16T06:03:22.062Z,17.70
2022-10-16T06:05:23.565Z,19.15
2022-10-16T06:07:25.530Z,17.77
2022-10-16T06:09:27.452Z,16.13
2022-10-16T06:11:31.714Z,17.15
2022-10-16T06:13:33.236Z,17.63
2022-10-16T06:15:34.705Z,17.05
2022-10-16T06:17:36.218Z,21.90
2022-10-16T06:19:37.710Z,18.40
2022-10-16T06:21:39.224Z,18.27
2022-10-16T06:23:40.781Z,20.52
2022-10-16T06:25:42.274Z,21.45
2022-10-16T06:27:43.740Z,22.05
2022-10-16T06:29:46.317Z,21.73
2022-10-16T06:31:47.991Z,23.48
2022-10-16T06:33:52.676Z,19.40
2022-10-16T06:35:54.152Z,19.80
2022-10-16T06:37:55.679Z,16.75
2022-10-16T06:39:57.317Z,16.70
2022-10-16T06:44:08.880Z,17.02
2022-10-16T06:46:12.150Z,19.15
2022-10-16T06:48:13.615Z,18.70
2022-10-16T06:50:15.404Z,19.15
2022-10-16T06:52:16.934Z,17.27
2022-10-16T06:54:18.911Z,15.00
2022-10-16T06:56:26.427Z,14.32
2022-10-16T06:58:27.944Z,14.75
2022-10-16T07:00:29.418Z,15.20
2022-10-16T07:02:30.876Z,15.20
2022-10-16T07:04:32.326Z,13.45
2022-10-16T07:06:35.401Z,12.75
2022-10-16T07:08:39.460Z,11.55
2022-10-16T07:10:40.964Z,12.48
2022-10-16T07:12:42.729Z,10.93
2022-10-16T07:14:44.237Z,11.27
2022-10-16T07:16:46.172Z,10.27
2022-10-16T07:18:49.599Z,10.32
2022-10-16T07:20:51.067Z,11.45
2022-10-16T07:22:52.986Z,10.52
2022-10-16T07:24:54.449Z,11.27
2022-10-16T07:26:55.946Z,10.98
2022-10-16T07:28:58.356Z,10.25
2022-10-16T07:31:09.191Z,10.85
2022-10-16T07:33:10.702Z,10.43
2022-10-16T07:35:12.227Z,10.85
2022-10-16T07:37:13.760Z,10.48
2022-10-16T07:39:15.250Z,10.40
2022-10-16T07:41:20.158Z,11.23
2022-10-16T07:43:21.609Z,10.38
2022-10-16T07:45:23.200Z,9.35
2022-10-16T07:47:25.103Z,9.05
2022-10-16T07:49:26.922Z,8.98
2022-10-16T07:51:28.550Z,10.20
2022-10-16T07:53:30.094Z,9.50
2022-10-16T07:55:32.445Z,9.63
2022-10-16T07:57:33.914Z,8.88
2022-10-16T07:59:35.381Z,9.18
2022-10-16T08:01:36.869Z,8.75
2022-10-16T08:03:38.691Z,8.68
2022-10-16T08:05:40.220Z,8.55
2022-10-16T08:07:41.671Z,9.60
2022-10-16T08:09:43.154Z,8.55
2022-10-16T08:11:44.683Z,8.48
2022-10-16T08:13:46.205Z,8.93
2022-10-16T08:15:47.958Z,9.88
2022-10-16T08:17:59.959Z,8.38
2022-10-16T08:20:01.797Z,8.82
2022-10-16T08:22:03.334Z,9.48
2022-10-16T08:24:04.965Z,7.93
2022-10-16T08:26:08.244Z,9.13
2022-10-16T08:28:11.417Z,10.52
2022-10-16T08:30:13.266Z,7.88
2022-10-16T08:32:15.016Z,8.65
2022-10-16T08:34:16.467Z,8.45
2022-10-16T08:36:17.942Z,8.52
2022-10-16T08:38:19.395Z,8.45
2022-10-16T08:42:48.116Z,7.53
2022-10-16T08:45:11.409Z,7.10
2022-10-16T08:47:41.340Z,8.50
2022-10-16T08:49:48.712Z,7.78
2022-10-16T08:51:51.887Z,7.75
2022-10-16T08:53:57.408Z,7.57
2022-10-16T08:55:59.658Z,8.30
2022-10-16T08:58:01.983Z,7.63
2022-10-16T09:00:14.340Z,7.82
2022-10-16T09:02:25.416Z,8.07
2022-10-16T09:04:56.675Z,9.18
2022-10-16T09:07:14.113Z,8.80
2022-10-16T09:09:27.593Z,8.23
2022-10-16T09:11:46.209Z,8.68
2022-10-16T09:14:16.962Z,8.60
2022-10-16T09:16:29.202Z,7.82
2022-10-16T09:18:40.807Z,7.50
2022-10-16T09:21:09.603Z,7.32
2022-10-16T09:23:26.244Z,13.90
2022-10-16T09:25:28.029Z,11.85
2022-10-16T09:27:29.776Z,9.10
2022-10-16T09:29:31.427Z,8.60
2022-10-16T09:31:33.227Z,10.85
2022-10-16T09:33:39.478Z,9.00
2022-10-16T09:35:44.691Z,6.65
2022-10-16T09:37:49.615Z,6.80
2022-10-16T09:39:53.616Z,6.35
2022-10-16T09:41:56.632Z,6.45
2022-10-16T09:44:00.711Z,6.20
2022-10-16T09:46:06.902Z,6.22
2022-10-16T09:48:13.532Z,6.63
2022-10-16T09:50:26.019Z,6.18
2022-10-16T09:52:27.513Z,6.38
2022-10-16T09:54:28.991Z,6.45
2022-10-16T09:56:37.195Z,6.30
2022-10-16T09:58:40.342Z,5.88
2022-10-16T10:00:43.541Z,6.82
2022-10-16T10:02:45.998Z,6.15
2022-10-16T10:04:55.606Z,7.18
2022-10-16T10:09:22.561Z,5.97
2022-10-16T10:11:50.329Z,6.53
2022-10-16T10:13:51.834Z,7.07
2022-10-16T10:15:54.306Z,6.90
2022-10-16T10:17:58.245Z,6.47
2022-10-16T10:20:01.997Z,6.82
2022-10-16T10:22:18.440Z,6.60
2022-10-16T10:24:20.823Z,7.72
2022-10-16T10:26:27.046Z,10.70
2022-10-16T10:28:51.450Z,11.32
2022-10-16T10:31:30.696Z,8.40
2022-10-16T10:33:51.144Z,9.18
2022-10-16T10:36:03.029Z,9.32
2022-10-16T10:38:24.929Z,7.93
2022-10-16T10:40:46.556Z,7.95
2022-10-16T10:42:58.886Z,7.57
2022-10-16T10:45:24.865Z,7.57
2022-10-16T10:47:38.227Z,8.25
2022-10-16T10:50:06.090Z,7.55
2022-10-16T10:52:34.964Z,9.07
2022-10-16T10:54:53.051Z,8.73
2022-10-16T10:57:23.885Z,9.35
2022-10-16T10:59:44.064Z,8.70
2022-10-16T11:01:57.559Z,9.57
2022-10-16T11:04:17.892Z,9.75
2022-10-16T11:06:25.642Z,8.45
2022-10-16T11:08:42.107Z,7.80
2022-10-16T11:10:58.746Z,7.72
2022-10-16T11:13:11.826Z,7.82
2022-10-16T11:15:18.290Z,6.32
2022-10-16T11:17:27.353Z,6.30
2022-10-16T11:19:38.272Z,6.45
2022-10-16T11:21:52.370Z,6.35
2022-10-16T11:24:05.844Z,6.55
2022-10-16T11:26:15.211Z,7.03
2022-10-16T11:28:27.918Z,6.43
2022-10-16T11:30:42.281Z,6.13
2022-10-16T11:33:05.791Z,8.07
2022-10-16T11:35:20.920Z,8.23
2022-10-16T11:37:26.731Z,7.45
2022-10-16T11:39:30.152Z,6.55
2022-10-16T11:41:40.746Z,6.35
2022-10-16T11:43:47.303Z,6.15
2022-10-16T11:45:55.816Z,6.68
2022-10-16T11:48:18.981Z,6.35
2022-10-16T11:51:07.964Z,7.95
2022-10-16T11:53:34.277Z,6.68
2022-10-16T11:55:44.563Z,6.95
2022-10-16T11:57:55.375Z,6.70
2022-10-16T12:00:01.993Z,5.82
2022-10-16T12:02:34.997Z,6.00
2022-10-16T12:05:04.505Z,6.38
2022-10-16T12:07:11.411Z,6.00
2022-10-16T12:09:35.621Z,6.35
2022-10-16T12:11:39.638Z,6.53
2022-10-16T12:13:42.211Z,6.50
2022-10-16T12:15:59.669Z,6.43
2022-10-16T12:18:01.578Z,6.60
2022-10-16T12:20:18.434Z,6.35
2022-10-16T12:22:20.224Z,6.50
2022-10-16T12:24:34.000Z,7.40
2022-10-16T12:26:45.512Z,7.13
2022-10-16T12:28:49.591Z,7.47
2022-10-16T12:30:59.839Z,6.78
2022-10-16T12:33:05.820Z,7.53
2022-10-16T12:35:20.983Z,6.70
2022-10-16T12:37:29.484Z,6.72
2022-10-16T12:39:31.262Z,7.25
2022-10-16T12:41:34.194Z,7.07
2022-10-16T12:43:49.039Z,6.95
2022-10-16T12:46:00.844Z,7.30
2022-10-16T12:48:05.806Z,7.20
2022-10-16T12:50:25.157Z,6.60
2022-10-16T12:52:26.865Z,6.80
2022-10-16T12:54:35.783Z,6.97
2022-10-16T12:56:49.289Z,6.70
2022-10-16T12:59:01.006Z,6.90
2022-10-16T13:01:38.964Z,7.10
2022-10-16T13:03:43.346Z,6.75
2022-10-16T13:06:12.291Z,7.28
2022-10-16T13:08:26.837Z,7.15
2022-10-16T13:10:43.565Z,7.32
2022-10-16T13:12:48.022Z,8.02
2022-10-16T13:14:58.559Z,7.63
2022-10-16T13:17:28.181Z,6.90
2022-10-16T13:19:45.274Z,7.50
2022-10-16T13:21:53.386Z,7.75
2022-10-16T13:24:26.111Z,7.70
2022-10-16T13:26:42.736Z,7.18
2022-10-16T13:28:44.548Z,7.55
2022-10-16T13:30:53.970Z,8.40
2022-10-16T13:33:05.468Z,7.47
2022-10-16T13:35:21.524Z,8.35
2022-10-16T13:37:26.232Z,7.40
2022-10-16T13:39:31.619Z,7.93
2022-10-16T13:41:33.108Z,7.93
2022-10-16T13:43:41.589Z,8.73
2022-10-16T13:46:04.147Z,7.45
2022-10-16T13:48:10.334Z,8.48
2022-10-16T13:50:17.853Z,8.48
2022-10-16T13:52:21.509Z,8.07
2022-10-16T13:54:23.624Z,7.85
2022-10-16T13:56:33.290Z,8.43
2022-10-16T13:58:35.006Z,7.43
2022-10-16T14:02:43.078Z,7.32
2022-10-16T14:04:44.741Z,8.07
2022-10-16T14:06:49.777Z,8.35
2022-10-16T14:09:15.238Z,8.52
2022-10-16T14:11:25.941Z,7.95
2022-10-16T14:13:48.858Z,8.40
2022-10-16T14:15:52.858Z,7.93
2022-10-16T14:17:54.954Z,8.18
2022-10-16T14:20:02.374Z,8.00
2022-10-16T14:22:25.783Z,8.27
2022-10-16T14:24:32.162Z,8.27
2022-10-16T14:26:46.817Z,8.32
2022-10-16T14:29:15.906Z,8.75
2022-10-16T14:31:20.183Z,9.18
2022-10-16T14:33:39.853Z,9.18
2022-10-16T14:35:41.355Z,8.40
2022-10-16T14:37:44.830Z,8.05
2022-10-16T14:39:51.201Z,8.20
2022-10-16T14:41:53.486Z,8.65
2022-10-16T14:43:58.155Z,8.45
2022-10-16T14:46:00.145Z,8.23
2022-10-16T14:48:06.570Z,9.02
2022-10-16T14:50:09.422Z,18.55
2022-10-16T14:52:14.270Z,9.23
2022-10-16T14:54:19.667Z,9.27
2022-10-16T14:56:24.998Z,10.77
2022-10-16T14:58:27.413Z,9.13
2022-10-16T15:00:29.000Z,8.90
2022-10-16T15:02:32.135Z,10.57
2022-10-16T15:04:33.602Z,10.27
2022-10-16T15:06:35.636Z,10.02
2022-10-16T15:08:37.084Z,9.70
2022-10-16T15:10:42.191Z,9.07
2022-10-16T15:12:43.918Z,9.60
2022-10-16T15:14:45.532Z,9.88
2022-10-16T15:16:47.306Z,9.25
2022-10-16T15:18:48.825Z,8.95
2022-10-16T15:20:51.009Z,9.65
2022-10-16T15:22:52.554Z,9.82
2022-10-16T15:24:54.032Z,9.63
2022-10-16T15:26:56.497Z,9.85
2022-10-16T15:28:58.521Z,10.63
2022-10-16T15:31:00.070Z,10.63
2022-10-16T15:33:02.220Z,8.80
2022-10-16T15:35:03.958Z,9.15
2022-10-16T15:37:05.485Z,9.50
2022-10-16T15:39:14.151Z,10.63
2022-10-16T15:41:15.587Z,9.43
2022-10-16T15:43:17.187Z,9.30
2022-10-16T15:45:20.130Z,10.13
2022-10-16T15:47:21.687Z,10.43
2022-10-16T15:49:23.290Z,10.85
2022-10-16T15:51:25.683Z,11.38
2022-10-16T15:53:27.382Z,13.00
2022-10-16T15:55:28.868Z,13.02
2022-10-16T15:57:30.513Z,12.43
2022-10-16T15:59:32.314Z,12.93
2022-10-16T16:01:35.545Z,12.95
2022-10-16T16:03:38.434Z,11.50
2022-10-16T16:05:45.652Z,12.32
2022-10-16T16:07:48.508Z,13.75
2022-10-16T16:09:50.084Z,14.35
2022-10-16T16:11:53.240Z,13.88
2022-10-16T16:13:56.164Z,13.85
2022-10-16T16:15:57.652Z,14.30
2022-10-16T16:17:59.299Z,13.13
2022-10-16T16:20:00.832Z,14.75
2022-10-16T16:22:02.295Z,12.75
2022-10-16T16:24:08.988Z,12.13
2022-10-16T16:26:33.456Z,13.18
2022-10-16T16:28:35.229Z,12.98
2022-10-16T16:30:36.915Z,13.10
2022-10-16T16:32:38.411Z,14.23
2022-10-16T16:34:39.898Z,16.08
2022-10-16T16:36:41.567Z,20.88
2022-10-16T16:38:43.024Z,22.38
2022-10-16T16:40:44.559Z,53.35
2022-10-16T16:42:49.061Z,17.77
2022-10-16T16:44:50.528Z,23.35
2022-10-16T16:46:52.483Z,15.48
2022-10-16T16:48:56.486Z,18.05
2022-10-16T16:50:58.071Z,19.10
2022-10-16T16:52:59.642Z,22.90
2022-10-16T16:55:02.125Z,35.58
2022-10-16T16:57:04.455Z,33.92
2022-10-16T16:59:06.012Z,32.10
2022-10-16T17:01:26.224Z,32.25
2022-10-16T17:03:32.221Z,28.48
2022-10-16T17:05:33.727Z,22.25
2022-10-16T17:07:35.623Z,21.67
2022-10-16T17:09:37.239Z,26.02
2022-10-16T17:11:38.730Z,26.55
2022-10-16T17:13:40.291Z,28.02
2022-10-16T17:15:48.109Z,24.27
2022-10-16T17:17:50.235Z,27.38
2022-10-16T17:19:52.120Z,47.90
2022-10-16T17:21:53.946Z,31.35
2022-10-16T17:23:55.544Z,33.25
2022-10-16T17:25:57.538Z,28.25
2022-10-16T17:27:59.120Z,25.38
2022-10-16T17:30:00.619Z,27.17
2022-10-16T17:32:02.065Z,27.35
2022-10-16T17:34:05.800Z,23.70
2022-10-16T17:36:08.326Z,19.67
2022-10-16T17:38:11.210Z,19.02
2022-10-16T17:42:19.541Z,24.85
2022-10-16T17:44:21.173Z,30.27
2022-10-16T17:46:24.286Z,40.80
2022-10-16T17:48:25.761Z,42.30
2022-10-16T17:50:27.400Z,37.20
2022-10-16T17:52:29.059Z,36.45
2022-10-16T17:54:30.921Z,38.47
2022-10-16T17:56:32.396Z,27.08
2022-10-16T17:58:34.188Z,25.95
2022-10-16T18:00:35.740Z,35.53
2022-10-16T18:02:37.248Z,43.45
2022-10-16T18:04:39.037Z,21.90
2022-10-16T18:06:42.851Z,23.67
2022-10-16T18:08:44.455Z,26.88
2022-10-16T18:10:50.230Z,26.63
2022-10-16T18:12:51.824Z,26.85
2022-10-16T18:14:58.413Z,29.95
2022-10-16T18:17:00.185Z,28.20
2022-10-16T18:19:01.754Z,26.38
2022-10-16T18:21:05.958Z,31.73
2022-10-16T18:23:07.578Z,29.50
2022-10-16T18:25:09.559Z,22.83
2022-10-16T18:27:11.280Z,21.88
2022-10-16T18:29:13.027Z,20.42
2022-10-16T18:31:16.478Z,23.05
2022-10-16T18:33:18.022Z,21.15
2022-10-16T18:35:19.690Z,33.38
2022-10-16T18:37:21.689Z,58.78
2022-10-16T18:39:23.829Z,63.13
2022-10-16T18:41:26.187Z,39.85
2022-10-16T18:43:30.499Z,43.10
2022-10-16T18:45:32.237Z,103.30
2022-10-16T18:47:33.706Z,155.57
2022-10-16T18:49:35.227Z,88.47
2022-10-16T18:51:40.718Z,28.95
2022-10-16T18:53:44.523Z,22.50
2022-10-16T18:55:53.473Z,23.02
2022-10-16T18:57:55.347Z,22.98
2022-10-16T18:59:57.510Z,21.58
2022-10-16T19:01:59.258Z,21.48
2022-10-16T19:04:04.198Z,23.23
2022-10-16T19:06:09.264Z,21.52
2022-10-16T19:08:10.770Z,33.38
2022-10-16T19:10:12.229Z,55.50
2022-10-16T19:12:13.826Z,29.40
2022-10-16T19:14:16.668Z,31.30
2022-10-16T19:16:21.642Z,41.53
2022-10-16T19:18:26.667Z,41.58
2022-10-16T19:20:28.536Z,37.80
2022-10-16T19:22:51.597Z,32.50
2022-10-16T19:24:53.950Z,30.52
2022-10-16T19:26:55.435Z,25.05
2022-10-16T19:28:58.863Z,24.90
2022-10-16T19:31:05.753Z,23.50
2022-10-16T19:33:07.292Z,24.60
2022-10-16T19:35:12.002Z,23.85
2022-10-16T19:37:13.657Z,22.73
2022-10-16T19:41:23.711Z,21.35
2022-10-16T19:43:25.193Z,22.00
2022-10-16T19:45:26.711Z,22.33
2022-10-16T19:47:28.290Z,21.67
2022-10-16T19:49:29.770Z,23.38
2022-10-16T19:51:32.527Z,21.75
2022-10-16T19:53:34.071Z,24.63
2022-10-16T19:55:35.547Z,22.48
2022-10-16T19:57:37.304Z,21.85
2022-10-16T19:59:41.916Z,24.83
2022-10-16T20:01:47.228Z,24.38
2022-10-16T20:03:50.213Z,28.08
2022-10-16T20:05:57.003Z,35.22
2022-10-16T20:07:58.473Z,35.10
2022-10-16T20:10:00.232Z,34.83
2022-10-16T20:12:02.599Z,26.20
2022-10-16T20:14:05.449Z,28.50
2022-10-16T20:16:07.466Z,29.40
2022-10-16T20:18:09.393Z,26.88
2022-10-16T20:20:10.957Z,27.85
2022-10-16T20:22:12.473Z,28.83
2022-10-16T20:24:14.023Z,29.55
2022-10-16T20:26:16.112Z,33.90
2022-10-16T20:28:20.080Z,36.17
2022-10-16T20:30:21.560Z,31.13
2022-10-16T20:32:23.453Z,28.40
2022-10-16T20:34:24.990Z,26.75
2022-10-16T20:36:30.634Z,28.52
2022-10-16T20:38:32.364Z,29.15
2022-10-16T20:40:35.821Z,29.98
2022-10-16T20:42:37.264Z,27.33
2022-10-16T20:44:39.221Z,30.20
2022-10-16T20:46:41.718Z,29.98
2022-10-16T20:48:44.763Z,28.90
2022-10-16T20:50:46.290Z,27.75
2022-10-16T20:54:50.206Z,25.73
2022-10-16T20:56:53.063Z,26.42
2022-10-16T20:58:54.574Z,32.70
2022-10-16T21:00:56.127Z,31.27
2022-10-16T21:02:57.799Z,34.88
2022-10-16T21:04:59.276Z,35.25
2022-10-16T21:07:00.813Z,32.42
2022-10-16T21:09:03.790Z,30.33
2022-10-16T21:11:12.022Z,34.97
2022-10-16T21:13:13.579Z,30.27
2022-10-16T21:15:15.673Z,33.03
2022-10-16T21:17:17.756Z,35.15
2022-10-16T21:19:19.242Z,56.83
2022-10-16T21:21:26.575Z,53.75
2022-10-16T21:23:28.939Z,44.72
2022-10-16T21:25:30.403Z,37.33
2022-10-16T21:27:37.599Z,33.17
2022-10-16T21:29:39.223Z,30.75
2022-10-16T21:31:41.128Z,29.15
2022-10-16T21:33:42.698Z,25.83
2022-10-16T21:35:44.260Z,26.30
2022-10-16T21:37:49.968Z,24.48
2022-10-16T21:39:51.446Z,24.02
2022-10-16T21:41:52.985Z,24.30
2022-10-16T21:43:56.053Z,23.58
2022-10-16T21:45:57.515Z,23.13
2022-10-16T21:47:59.035Z,21.42
2022-10-16T21:50:00.568Z,21.80
2022-10-16T21:52:02.170Z,21.48
2022-10-16T21:54:05.989Z,23.52
2022-10-16T21:56:17.889Z,22.85
2022-10-16T21:58:19.389Z,24.77
2022-10-16T22:00:20.880Z,20.85
2022-10-16T22:02:22.367Z,20.83
2022-10-16T22:04:23.858Z,22.17
2022-10-16T22:06:27.537Z,21.92
2022-10-16T22:08:29.356Z,20.60
2022-10-16T22:10:31.753Z,20.63
2022-10-16T22:12:33.232Z,21.52
2022-10-16T22:14:34.717Z,21.70
2022-10-16T22:16:36.690Z,23.02
2022-10-16T22:18:39.251Z,22.88
2022-10-16T22:20:46.371Z,26.80
2022-10-16T22:22:47.818Z,26.58
2022-10-16T22:24:49.281Z,22.83
2022-10-16T22:26:50.803Z,25.00
2022-10-16T22:28:52.372Z,24.38
2022-10-16T22:30:53.930Z,20.92
2022-10-16T22:32:55.408Z,21.00
2022-10-16T22:34:56.928Z,19.13
2022-10-16T22:36:58.418Z,18.30
2022-10-16T22:39:00.391Z,18.17
2022-10-16T22:41:11.038Z,18.55
2022-10-16T22:43:12.518Z,17.35
2022-10-16T22:45:14.149Z,18.58
2022-10-16T22:47:15.708Z,16.98
2022-10-16T22:49:18.703Z,18.13
2022-10-16T22:51:20.667Z,16.20
2022-10-16T22:53:22.204Z,16.10
2022-10-16T22:55:24.101Z,15.77
2022-10-16T22:57:25.623Z,16.55
2022-10-16T22:59:27.121Z,16.13
2022-10-16T23:01:41.523Z,16.20
2022-10-16T23:03:43.549Z,16.85
2022-10-16T23:05:45.607Z,20.45
2022-10-16T23:07:47.153Z,22.30
2022-10-16T23:09:48.694Z,26.80
2022-10-16T23:11:50.280Z,23.77
2022-10-16T23:13:52.230Z,21.70
2022-10-16T23:15:53.809Z,20.95
2022-10-16T23:17:55.330Z,20.52
2022-10-16T23:19:56.813Z,22.05
2022-10-16T23:21:58.339Z,22.88
2022-10-16T23:23:59.918Z,21.00
2022-10-16T23:26:01.670Z,21.50
2022-10-16T23:28:04.240Z,20.52
2022-10-16T23:30:06.986Z,22.52
2022-10-16T23:32:08.478Z,22.95
2022-10-16T23:34:10.019Z,22.33
2022-10-16T23:36:16.230Z,21.27
2022-10-16T23:38:17.692Z,23.23
2022-10-16T23:40:19.242Z,23.83
2022-10-16T23:42:20.786Z,24.38
2022-10-16T23:44:22.256Z,23.90
2022-10-16T23:48:30.270Z,24.02
2022-10-16T23:50:31.845Z,27.38
2022-10-16T23:52:33.359Z,29.00
2022-10-16T23:54:34.872Z,30.02
2022-10-16T23:56:36.343Z,25.40
2022-10-16T23:58:38.220Z,29.02
